Time;durP1;ratioP1;P1;durP2;ratioP2;P2;SDS_P1;SDS_P2;PMS_P1;PMS_P2;Temp;Humidity;BMP_temperature;BMP_pressure;BME280_temperature;BME280_humidity;BME280_pressure;Samples;Min_cycle;Max_cycle;Signal;HPM_P1;HPM_P2
2021/08/09 00:02:32;;;;;;;3.13;0.60;;;21.20;99.90;;;;;;20618983;28;20578;-78
2021/08/09 00:12:38;;;;;;;5.00;0.30;;;21.10;99.90;;;;;;20619845;28;20227;-77
2021/08/09 00:22:41;;;;;;;0.33;0.20;;;21.00;99.90;;;;;;20619471;28;20659;-76
2021/08/09 00:32:47;;;;;;;0.80;0.30;;;20.90;99.90;;;;;;20633454;23;20329;-78
2021/08/09 00:42:52;;;;;;;0.70;0.50;;;21.00;99.90;;;;;;20601872;23;20236;-80
2021/08/09 00:52:58;;;;;;;0.53;0.30;;;21.10;99.90;;;;;;20519963;28;20185;-80
2021/08/09 01:03:02;;;;;;;0.43;0.40;;;21.10;99.90;;;;;;20536874;28;20337;-79
2021/08/09 01:13:18;;;;;;;0.80;0.67;;;21.20;99.90;;;;;;20517006;28;20203;-78
2021/08/09 01:23:51;;;;;;;0.60;0.60;;;21.30;99.90;;;;;;20535419;28;20215;-77
2021/08/09 01:33:57;;;;;;;0.60;0.40;;;21.20;99.90;;;;;;20547546;23;20223;-77
2021/08/09 01:44:01;;;;;;;0.40;0.40;;;21.30;99.90;;;;;;20695562;28;20584;-77
2021/08/09 01:54:34;;;;;;;0.23;0.20;;;21.30;99.90;;;;;;21565591;23;20395;-83
2021/08/09 02:05:53;;;;;;;3.60;0.50;;;21.30;99.90;;;;;;20827448;23;20242;31
2021/08/09 02:16:02;;;;;;;0.63;0.33;;;21.10;99.90;;;;;;20422993;23;20323;-77
2021/08/09 02:26:09;;;;;;;9.57;0.63;;;21.10;99.90;;;;;;20549065;28;20267;-76
2021/08/09 02:36:14;;;;;;;0.70;0.43;;;21.10;99.90;;;;;;20545214;28;20574;-76
2021/08/09 03:07:14;;;;;;;0.20;0.20;;;21.20;99.90;;;;;;21124751;23;20238;-81
2021/08/09 03:17:39;;;;;;;1.20;0.30;;;21.20;99.90;;;;;;20685355;28;20217;-80
2021/08/09 03:27:44;;;;;;;0.20;0.17;;;21.10;99.90;;;;;;20702482;28;20325;-82
2021/08/09 03:37:48;;;;;;;0.73;0.47;;;21.10;99.90;;;;;;20667161;28;20300;-80
2021/08/09 03:47:53;;;;;;;0.50;0.20;;;21.10;99.90;;;;;;20699807;28;20574;-78
2021/08/09 03:57:57;;;;;;;0.63;0.23;;;21.00;99.90;;;;;;20700483;28;20191;-77
2021/08/09 04:08:03;;;;;;;0.40;0.40;;;21.10;99.90;;;;;;20729844;23;20247;-75
2021/08/09 04:18:22;;;;;;;0.40;0.40;;;21.10;99.90;;;;;;21077123;23;20880;-78
2021/08/09 04:28:39;;;;;;;0.53;0.47;;;21.10;99.90;;;;;;20661344;23;20274;-77
2021/08/09 05:01:45;;;;;;;0.20;0.20;;;21.00;99.90;;;;;;21011837;23;20250;-76
2021/08/09 05:11:49;;;;;;;7.80;0.60;;;20.90;99.90;;;;;;20660795;23;20741;-78
2021/08/09 05:21:56;;;;;;;0.40;0.20;;;21.00;99.90;;;;;;20457468;29;20205;-77
2021/08/09 05:32:41;;;;;;;2.40;0.63;;;21.00;99.90;;;;;;20458723;29;20231;-79
2021/08/09 05:42:49;;;;;;;0.47;0.43;;;21.20;99.90;;;;;;20620775;23;20324;-78
2021/08/09 05:53:26;;;;;;;1.07;0.90;;;21.40;99.90;;;;;;20710900;28;20277;-78
2021/08/09 06:03:32;;;;;;;0.63;0.33;;;21.50;99.90;;;;;;20692215;28;20202;-81
2021/08/09 06:13:35;;;;;;;0.27;0.17;;;21.70;99.90;;;;;;20665992;28;20230;-73
2021/08/09 06:23:44;;;;;;;2.40;0.97;;;22.00;99.90;;;;;;20684893;28;20293;-77
2021/08/09 06:33:48;;;;;;;0.77;0.60;;;22.40;99.90;;;;;;20668856;23;20526;-80
2021/08/09 06:43:59;;;;;;;0.93;0.40;;;22.60;99.90;;;;;;20664660;23;20239;-82
2021/08/09 06:54:05;;;;;;;0.82;0.40;;;23.00;99.90;;;;;;20707204;28;20336;-77
2021/08/09 07:04:39;;;;;;;0.50;0.40;;;23.50;99.90;;;;;;20679013;28;20305;-80
2021/08/09 07:14:50;;;;;;;9.73;1.55;;;24.10;99.90;;;;;;20746234;28;20297;-84
2021/08/09 07:24:55;;;;;;;1.85;0.40;;;24.60;99.90;;;;;;20874028;23;20570;-83
2021/08/09 07:35:13;;;;;;;0.85;0.82;;;25.00;99.90;;;;;;20610189;28;20204;-80
2021/08/09 07:45:20;;;;;;;0.77;0.60;;;25.30;99.90;;;;;;20665411;23;20231;-83
2021/08/09 08:06:56;;;;;;;2.40;1.58;;;24.70;99.90;;;;;;20619602;23;20247;-79
2021/08/09 08:17:01;;;;;;;3.05;0.30;;;25.00;99.90;;;;;;20754522;23;20594;-79
2021/08/09 08:27:59;;;;;;;0.75;0.50;;;24.60;99.90;;;;;;20563057;23;20243;-80
2021/08/09 08:59:56;;;;;;;1.95;1.30;;;24.00;99.90;;;;;;20364877;23;20332;-84
2021/08/09 09:21:06;;;;;;;2.97;0.52;;;24.70;99.90;;;;;;21184986;23;20495;-84
2021/08/09 09:42:12;;;;;;;0.43;0.28;;;24.50;99.90;;;;;;20568758;23;21070;-83
2021/08/09 09:53:00;;;;;;;0.93;0.63;;;25.50;99.90;;;;;;20486159;23;20235;-73
2021/08/09 10:03:11;;;;;;;1.08;0.32;;;25.60;99.90;;;;;;20544920;23;20234;-80
2021/08/09 10:13:17;;;;;;;0.60;0.57;;;25.50;99.90;;;;;;20532444;28;20571;-79
2021/08/09 10:23:46;;;;;;;0.47;0.40;;;26.60;99.90;;;;;;20521642;28;20324;-80
2021/08/09 10:33:54;;;;;;;2.05;0.30;;;26.50;99.90;;;;;;20587720;23;20250;-85
2021/08/09 11:17:06;;;;;;;0.32;0.20;;;25.10;99.90;;;;;;20301540;29;20639;-86
2021/08/09 11:27:09;;;;;;;1.08;0.98;;;25.10;99.90;;;;;;20816370;23;20243;-82
2021/08/09 11:37:15;;;;;;;1.48;0.77;;;25.00;99.90;;;;;;20617395;28;20780;-83
2021/08/09 11:47:23;;;;;;;0.38;0.35;;;25.40;99.90;;;;;;20624932;28;20619;-81
2021/08/09 11:58:26;;;;;;;0.57;0.57;;;26.50;99.90;;;;;;20706245;23;20317;-79
2021/08/09 12:09:12;;;;;;;1.83;0.85;;;26.90;99.90;;;;;;20631635;23;20655;-81
2021/08/09 12:19:39;;;;;;;0.65;0.57;;;29.70;99.90;;;;;;20652434;23;20781;-78
2021/08/09 12:41:27;;;;;;;1.77;0.70;;;31.40;99.90;;;;;;20559143;23;20235;-74
2021/08/09 12:51:30;;;;;;;1.48;0.95;;;31.80;99.90;;;;;;20656043;28;20237;-73
2021/08/09 13:01:36;;;;;;;0.68;0.68;;;31.60;99.90;;;;;;20671429;28;20637;-74
2021/08/09 13:11:40;;;;;;;0.55;0.55;;;31.30;99.90;;;;;;20677501;28;20250;-73
2021/08/09 13:21:45;;;;;;;1.02;0.85;;;31.20;99.90;;;;;;20641418;28;20188;-77
2021/08/09 13:31:52;;;;;;;6.65;1.38;;;31.70;99.90;;;;;;20612885;28;20254;-74
2021/08/09 13:42:00;;;;;;;0.40;0.30;;;31.00;99.90;;;;;;20576493;28;20228;-75
2021/08/09 13:52:22;;;;;;;0.43;0.32;;;31.30;99.90;;;;;;20516611;28;20234;-73
2021/08/09 14:02:30;;;;;;;1.77;0.70;;;32.00;99.90;;;;;;20561786;28;20204;-73
2021/08/09 14:12:37;;;;;;;1.15;0.75;;;33.00;99.90;;;;;;20545270;28;20228;-73
2021/08/09 14:22:42;;;;;;;0.70;0.47;;;32.90;99.90;;;;;;20530065;28;21046;-78
2021/08/09 14:32:50;;;;;;;0.50;0.50;;;33.50;99.90;;;;;;20543212;28;20224;-73
2021/08/09 14:43:01;;;;;;;0.85;0.70;;;33.30;99.90;;;;;;20588680;28;20231;-74
2021/08/09 14:53:05;;;;;;;0.95;0.40;;;32.80;99.90;;;;;;20622221;28;20231;-74
2021/08/09 15:03:10;;;;;;;0.93;0.50;;;33.60;99.90;;;;;;20621881;28;20192;-75
2021/08/09 15:13:16;;;;;;;3.67;0.80;;;33.70;99.90;;;;;;20618962;28;20492;-77
2021/08/09 15:23:24;;;;;;;0.88;0.88;;;33.10;99.90;;;;;;20619841;28;20218;-74
2021/08/09 15:33:52;;;;;;;0.60;0.50;;;31.30;99.90;;;;;;20620322;28;20700;-75
2021/08/09 15:44:06;;;;;;;1.05;0.52;;;31.30;99.90;;;;;;20655178;28;20226;-73
2021/08/09 15:54:17;;;;;;;0.90;0.55;;;29.70;99.90;;;;;;20622737;23;20726;-75
2021/08/09 16:04:22;;;;;;;7.30;1.02;;;29.70;99.90;;;;;;20446662;28;20933;-76
2021/08/09 16:14:32;;;;;;;1.67;0.40;;;28.70;99.90;;;;;;20455912;29;20236;-75
2021/08/09 16:24:37;;;;;;;1.33;0.85;;;28.70;99.90;;;;;;20455903;28;20791;-77
2021/08/09 16:34:41;;;;;;;1.52;0.95;;;28.00;99.90;;;;;;20438466;29;20669;-80
2021/08/09 16:44:47;;;;;;;0.57;0.20;;;27.60;99.90;;;;;;20458590;29;20676;-77
2021/08/09 16:54:52;;;;;;;0.60;0.45;;;27.90;99.90;;;;;;20486424;28;20860;-78
2021/08/09 17:04:59;;;;;;;1.15;1.05;;;27.80;99.90;;;;;;20516357;28;20211;-74
2021/08/09 17:15:03;;;;;;;0.30;0.20;;;27.20;99.90;;;;;;20533707;28;20268;-78
2021/08/09 17:25:24;;;;;;;1.90;0.85;;;27.10;99.90;;;;;;20519660;28;20607;-77
2021/08/09 17:35:53;;;;;;;0.90;0.60;;;27.00;99.90;;;;;;20525577;28;20238;-76
2021/08/09 17:45:58;;;;;;;1.25;0.57;;;26.40;99.90;;;;;;20506688;28;20716;-77
2021/08/09 17:56:02;;;;;;;1.55;0.88;;;26.20;99.90;;;;;;20560221;28;20238;-79
2021/08/09 18:06:10;;;;;;;0.82;0.70;;;26.30;99.90;;;;;;20584676;28;20880;-77
2021/08/09 18:16:15;;;;;;;0.75;0.70;;;26.00;99.90;;;;;;20565525;28;20656;-71
2021/08/09 18:26:29;;;;;;;0.60;0.60;;;25.80;99.90;;;;;;20623724;23;20247;-77
2021/08/09 18:36:43;;;;;;;;;;;;;;;;;;;;;
2021/08/09 18:47:12;;;;;;;0.90;0.70;;;25.50;99.90;;;;;;20515433;28;20227;-78
2021/08/09 18:57:17;;;;;;;3.10;0.90;;;25.40;99.90;;;;;;20545247;28;20204;-76
2021/08/09 19:07:22;;;;;;;1.88;0.90;;;25.10;99.90;;;;;;20508564;28;20225;-76
2021/08/09 19:17:25;;;;;;;3.35;1.00;;;25.10;99.90;;;;;;20510113;28;20204;-81
2021/08/09 19:27:30;;;;;;;0.95;0.50;;;24.90;99.90;;;;;;20533935;28;20240;-81
2021/08/09 19:37:34;;;;;;;0.47;0.45;;;24.80;99.90;;;;;;20600642;28;20303;-80
2021/08/09 19:47:40;;;;;;;0.50;0.50;;;24.50;99.90;;;;;;20539491;28;20235;-77
2021/08/09 19:57:44;;;;;;;3.65;0.88;;;24.30;99.90;;;;;;20538474;28;20204;-79
2021/08/09 20:07:49;;;;;;;1.85;0.85;;;24.10;99.90;;;;;;20539693;28;20726;-79
2021/08/09 20:17:52;;;;;;;0.63;0.30;;;23.80;99.90;;;;;;20536797;28;20204;-78
2021/08/09 20:27:58;;;;;;;0.47;0.33;;;23.90;99.90;;;;;;20537497;28;20766;-78
2021/08/09 20:38:01;;;;;;;3.50;1.83;;;23.50;99.90;;;;;;20534633;28;20240;-78
2021/08/09 20:48:07;;;;;;;0.70;0.63;;;23.40;99.90;;;;;;20517606;28;20224;-76
2021/08/09 20:58:10;;;;;;;2.67;0.60;;;23.00;99.90;;;;;;20533261;28;20200;-76
2021/08/09 21:08:16;;;;;;;1.90;1.23;;;22.90;99.90;;;;;;20516456;28;20480;-78
2021/08/09 21:18:19;;;;;;;0.37;0.37;;;22.90;99.90;;;;;;20532770;28;20215;-77
2021/08/09 21:28:42;;;;;;;1.30;0.73;;;22.70;99.90;;;;;;20533312;28;20235;-82
2021/08/09 21:38:46;;;;;;;2.70;0.87;;;22.50;99.90;;;;;;20532658;28;20196;-75
2021/08/09 21:48:51;;;;;;;0.60;0.53;;;22.40;99.90;;;;;;20540645;28;20308;-77
2021/08/09 21:58:56;;;;;;;0.63;0.60;;;22.50;99.90;;;;;;20614206;28;20206;-78
2021/08/09 22:09:01;;;;;;;1.87;0.70;;;22.50;99.90;;;;;;20536537;28;20231;-82
2021/08/09 22:19:05;;;;;;;1.13;0.60;;;22.40;99.90;;;;;;20528385;28;20279;-83
2021/08/09 22:29:10;;;;;;;0.50;0.50;;;22.50;99.90;;;;;;20543981;28;20990;-80
2021/08/09 22:39:13;;;;;;;0.97;0.70;;;22.70;99.90;;;;;;20542769;28;20258;-78
2021/08/09 22:49:18;;;;;;;0.40;0.40;;;22.50;99.90;;;;;;20534997;28;20518;-81
2021/08/09 22:59:22;;;;;;;0.97;0.87;;;22.30;99.90;;;;;;20539756;28;20204;-82
2021/08/09 23:09:28;;;;;;;2.10;0.97;;;22.20;99.90;;;;;;20544500;28;20250;-80
2021/08/09 23:19:32;;;;;;;0.60;0.50;;;22.30;99.90;;;;;;20542221;28;20200;-86
2021/08/09 23:29:37;;;;;;;0.50;0.40;;;22.30;99.90;;;;;;20540625;28;20933;-82
2021/08/09 23:39:40;;;;;;;1.03;0.73;;;22.20;99.90;;;;;;20539463;28;20690;-85
2021/08/09 23:49:45;;;;;;;4.27;1.17;;;22.10;99.90;;;;;;20526126;28;20224;-82
2021/08/09 23:59:49;;;;;;;1.50;0.37;;;22.40;99.90;;;;;;20561432;23;20231;-77
